createdAt,value
2022-12-17T00:02:16.577Z,11.35
2022-12-17T00:05:07.658Z,11.95
2022-12-17T00:07:53.212Z,13.03
2022-12-17T00:10:40.799Z,12.80
2022-12-17T00:13:37.715Z,12.10
2022-12-17T00:16:24.779Z,12.18
2022-12-17T00:19:12.491Z,11.48
2022-12-17T00:21:58.450Z,11.75
2022-12-17T00:24:44.599Z,12.02
2022-12-17T00:27:30.473Z,12.13
2022-12-17T00:30:16.459Z,12.55
2022-12-17T00:33:03.532Z,11.18
2022-12-17T00:35:50.540Z,12.07
2022-12-17T00:38:36.565Z,11.85
2022-12-17T00:41:22.696Z,12.05
2022-12-17T00:44:08.786Z,13.10
2022-12-17T00:46:55.671Z,11.90
2022-12-17T00:49:41.754Z,11.80
2022-12-17T00:52:29.637Z,12.75
2022-12-17T00:55:15.897Z,12.70
2022-12-17T00:58:01.681Z,11.40
2022-12-17T01:00:48.838Z,13.13
2022-12-17T01:03:34.798Z,12.68
2022-12-17T01:06:21.848Z,12.05
2022-12-17T01:09:09.028Z,12.35
2022-12-17T01:11:56.392Z,12.98
2022-12-17T01:14:43.221Z,13.23
2022-12-17T01:17:29.707Z,11.90
2022-12-17T01:20:16.324Z,12.65
2022-12-17T01:23:04.452Z,14.02
2022-12-17T01:25:51.399Z,13.57
2022-12-17T01:28:41.325Z,12.82
2022-12-17T01:31:31.392Z,12.82
2022-12-17T01:34:20.080Z,11.82
2022-12-17T01:37:06.372Z,12.60
2022-12-17T01:39:52.616Z,13.82
2022-12-17T01:42:39.562Z,11.98
2022-12-17T01:45:29.276Z,12.68
2022-12-17T01:48:19.921Z,13.32
2022-12-17T01:51:09.590Z,13.20
2022-12-17T01:54:00.276Z,13.38
2022-12-17T01:56:46.671Z,13.50
2022-12-17T01:59:37.125Z,13.77
2022-12-17T02:02:25.330Z,12.52
2022-12-17T02:05:11.562Z,13.30
2022-12-17T02:08:07.912Z,13.63
2022-12-17T02:11:03.139Z,12.88
2022-12-17T02:13:54.465Z,12.88
2022-12-17T02:16:49.247Z,14.40
2022-12-17T02:19:49.385Z,13.00
2022-12-17T02:22:41.670Z,15.05
2022-12-17T02:25:35.116Z,14.10
2022-12-17T02:28:22.828Z,14.70
2022-12-17T02:31:10.242Z,15.38
2022-12-17T02:33:56.396Z,14.82
2022-12-17T02:36:42.455Z,14.43
2022-12-17T02:39:28.710Z,14.23
2022-12-17T02:42:16.644Z,14.52
2022-12-17T02:45:05.346Z,15.15
2022-12-17T02:47:51.282Z,13.57
2022-12-17T02:50:37.598Z,13.73
2022-12-17T02:53:23.725Z,15.38
2022-12-17T02:56:24.166Z,14.95
2022-12-17T02:59:10.191Z,14.30
2022-12-17T03:01:58.841Z,15.30
2022-12-17T03:04:44.722Z,15.05
2022-12-17T03:07:30.455Z,15.77
2022-12-17T03:10:16.384Z,15.98
2022-12-17T03:13:02.206Z,14.32
2022-12-17T03:15:48.654Z,14.05
2022-12-17T03:18:35.897Z,13.23
2022-12-17T03:21:21.661Z,13.27
2022-12-17T03:24:07.600Z,12.70
2022-12-17T03:26:53.728Z,13.80
2022-12-17T03:29:39.378Z,12.93
2022-12-17T03:32:25.163Z,13.90
2022-12-17T03:35:12.433Z,11.90
2022-12-17T03:37:58.148Z,13.75
2022-12-17T03:40:43.708Z,13.93
2022-12-17T03:43:30.893Z,14.10
2022-12-17T03:46:16.522Z,13.43
2022-12-17T03:49:02.553Z,12.38
2022-12-17T03:51:49.593Z,12.88
2022-12-17T03:54:35.299Z,12.98
2022-12-17T03:57:20.965Z,12.68
2022-12-17T04:00:07.141Z,12.63
2022-12-17T04:02:59.605Z,12.98
2022-12-17T04:05:45.586Z,13.13
2022-12-17T04:08:32.660Z,12.80
2022-12-17T04:11:18.773Z,11.23
2022-12-17T04:14:04.815Z,12.38
2022-12-17T04:16:50.830Z,11.15
2022-12-17T04:19:36.426Z,11.90
2022-12-17T04:22:22.424Z,12.07
2022-12-17T04:25:10.186Z,11.77
2022-12-17T04:27:56.279Z,11.30
2022-12-17T04:30:42.035Z,11.88
2022-12-17T04:33:27.646Z,11.65
2022-12-17T04:36:13.722Z,11.10
2022-12-17T04:38:59.327Z,11.43
2022-12-17T04:41:46.499Z,12.00
2022-12-17T04:44:32.319Z,10.93
2022-12-17T04:47:19.492Z,11.98
2022-12-17T04:50:05.532Z,11.70
2022-12-17T04:52:51.022Z,10.05
2022-12-17T04:55:36.694Z,10.80
2022-12-17T04:58:24.894Z,10.65
2022-12-17T05:01:11.304Z,11.38
2022-12-17T05:03:58.275Z,11.07
2022-12-17T05:06:44.527Z,10.90
2022-12-17T05:09:30.098Z,11.15
2022-12-17T05:12:17.050Z,10.85
2022-12-17T05:15:04.508Z,11.75
2022-12-17T05:18:04.611Z,11.13
2022-12-17T05:20:50.982Z,12.82
2022-12-17T05:23:38.230Z,10.25
2022-12-17T05:26:26.113Z,11.75
2022-12-17T05:29:15.816Z,11.50
2022-12-17T05:32:03.700Z,12.85
2022-12-17T05:34:51.598Z,12.70
2022-12-17T05:37:38.244Z,11.15
2022-12-17T05:40:37.163Z,12.23
2022-12-17T05:43:25.414Z,11.35
2022-12-17T05:46:11.365Z,11.27
2022-12-17T05:48:58.820Z,11.93
2022-12-17T05:51:45.062Z,11.68
2022-12-17T05:54:31.287Z,12.75
2022-12-17T05:57:17.517Z,11.15
2022-12-17T06:00:04.380Z,12.43
2022-12-17T06:02:57.962Z,12.25
2022-12-17T06:05:47.819Z,11.40
2022-12-17T06:08:33.564Z,11.90
2022-12-17T06:11:20.144Z,12.05
2022-12-17T06:14:06.055Z,12.00
2022-12-17T06:16:52.044Z,11.63
2022-12-17T06:19:38.645Z,12.10
2022-12-17T06:22:30.142Z,13.30
2022-12-17T06:25:15.520Z,11.32
2022-12-17T06:28:01.524Z,12.85
2022-12-17T06:30:47.475Z,11.15
2022-12-17T06:33:38.945Z,11.05
2022-12-17T06:36:36.839Z,11.52
2022-12-17T06:39:24.082Z,11.75
2022-12-17T06:42:06.239Z,11.07
2022-12-17T06:44:52.045Z,10.95
2022-12-17T06:47:37.948Z,11.77
2022-12-17T06:50:25.062Z,11.15
2022-12-17T06:53:18.243Z,11.32
2022-12-17T06:56:05.511Z,11.52
2022-12-17T06:58:51.478Z,11.13
2022-12-17T07:01:37.210Z,11.85
2022-12-17T07:04:32.205Z,10.75
2022-12-17T07:07:18.147Z,10.82
2022-12-17T07:10:06.845Z,10.48
2022-12-17T07:13:05.284Z,10.63
2022-12-17T07:15:51.663Z,10.68
2022-12-17T07:18:37.443Z,11.15
2022-12-17T07:21:23.443Z,11.43
2022-12-17T07:24:09.662Z,10.90
2022-12-17T07:26:55.506Z,11.20
2022-12-17T07:29:43.012Z,11.45
2022-12-17T07:32:29.474Z,10.07
2022-12-17T07:35:21.250Z,11.68
2022-12-17T07:38:06.822Z,12.23
2022-12-17T07:40:53.113Z,12.15
2022-12-17T07:43:39.249Z,10.93
2022-12-17T07:46:27.082Z,11.70
2022-12-17T07:49:13.150Z,9.43
2022-12-17T07:51:55.596Z,11.07
2022-12-17T07:54:41.867Z,11.43
2022-12-17T07:57:27.719Z,10.65
2022-12-17T08:00:13.866Z,10.50
2022-12-17T08:03:01.900Z,11.48
2022-12-17T08:05:47.962Z,11.98
2022-12-17T08:08:33.916Z,11.20
2022-12-17T08:11:19.955Z,11.30
2022-12-17T08:14:05.924Z,11.95
2022-12-17T08:16:51.975Z,10.40
2022-12-17T08:19:40.806Z,10.95
2022-12-17T08:22:26.665Z,12.70
2022-12-17T08:25:12.802Z,10.77
2022-12-17T08:27:58.873Z,10.82
2022-12-17T08:30:44.875Z,10.50
2022-12-17T08:33:30.641Z,10.50
2022-12-17T08:36:17.009Z,10.63
2022-12-17T08:39:04.354Z,11.10
2022-12-17T08:41:54.454Z,11.30
2022-12-17T08:44:40.723Z,10.95
2022-12-17T08:47:26.594Z,12.68
2022-12-17T08:50:12.766Z,10.38
2022-12-17T08:52:59.840Z,10.65
2022-12-17T08:55:45.866Z,11.35
2022-12-17T08:58:31.617Z,12.57
2022-12-17T09:01:18.706Z,11.05
2022-12-17T09:04:04.824Z,11.50
2022-12-17T09:06:50.843Z,11.43
2022-12-17T09:09:38.776Z,11.52
2022-12-17T09:12:24.544Z,9.82
2022-12-17T09:15:10.083Z,11.02
2022-12-17T09:18:01.070Z,11.90
2022-12-17T09:20:46.854Z,12.13
2022-12-17T09:23:34.997Z,11.63
2022-12-17T09:26:25.051Z,10.05
2022-12-17T09:29:11.398Z,11.95
2022-12-17T09:31:57.053Z,11.05
2022-12-17T09:34:42.633Z,10.93
2022-12-17T09:37:27.927Z,10.93
2022-12-17T09:40:13.482Z,11.43
2022-12-17T09:43:10.808Z,11.57
2022-12-17T09:46:05.541Z,12.60
2022-12-17T09:48:59.562Z,11.20
2022-12-17T09:51:48.796Z,11.27
2022-12-17T09:54:41.315Z,12.65
2022-12-17T09:57:47.767Z,11.95
2022-12-17T10:00:38.957Z,13.57
2022-12-17T10:03:39.403Z,8.70
2022-12-17T10:06:29.248Z,12.02
2022-12-17T10:09:19.201Z,12.18
2022-12-17T10:12:04.884Z,12.00
2022-12-17T10:14:51.164Z,11.38
2022-12-17T10:17:45.916Z,12.25
2022-12-17T10:20:39.662Z,11.43
2022-12-17T10:23:25.855Z,12.32
2022-12-17T10:26:12.924Z,11.85
2022-12-17T10:28:59.307Z,12.38
2022-12-17T10:31:48.960Z,12.95
2022-12-17T10:34:39.435Z,13.02
2022-12-17T10:37:36.920Z,11.93
2022-12-17T10:40:38.959Z,14.02
2022-12-17T10:46:25.712Z,12.57
2022-12-17T10:49:22.952Z,12.45
2022-12-17T10:52:10.177Z,12.77
2022-12-17T10:54:57.144Z,12.18
2022-12-17T10:57:48.693Z,13.32
2022-12-17T11:00:49.001Z,13.15
2022-12-17T11:03:44.856Z,12.27
2022-12-17T11:06:36.249Z,13.27
2022-12-17T11:09:40.314Z,13.82
2022-12-17T11:12:30.736Z,11.85
2022-12-17T11:15:22.969Z,12.68
2022-12-17T11:18:11.527Z,12.50
2022-12-17T11:21:07.714Z,12.57
2022-12-17T11:23:56.229Z,13.02
2022-12-17T11:26:45.617Z,13.68
2022-12-17T11:29:32.931Z,11.88
2022-12-17T11:32:33.844Z,12.63
2022-12-17T11:35:29.091Z,12.38
2022-12-17T11:38:23.692Z,11.98
2022-12-17T11:41:13.124Z,12.88
2022-12-17T11:44:07.961Z,12.50
2022-12-17T11:47:04.111Z,13.60
2022-12-17T11:50:00.761Z,13.18
2022-12-17T11:52:53.801Z,13.13
2022-12-17T11:55:49.035Z,12.35
2022-12-17T11:58:42.834Z,12.70
2022-12-17T12:01:42.901Z,11.85
2022-12-17T12:04:40.681Z,11.93
2022-12-17T12:07:36.976Z,12.60
2022-12-17T12:10:30.684Z,13.27
2022-12-17T12:13:28.761Z,13.65
2022-12-17T12:16:25.606Z,12.68
2022-12-17T12:19:22.721Z,11.73
2022-12-17T12:22:16.867Z,13.30
2022-12-17T12:25:22.533Z,11.82
2022-12-17T12:28:19.574Z,12.82
2022-12-17T12:31:17.281Z,13.32
2022-12-17T12:34:23.919Z,12.75
2022-12-17T12:37:12.160Z,12.07
2022-12-17T12:40:05.790Z,12.10
2022-12-17T12:42:58.364Z,13.27
2022-12-17T12:45:55.729Z,12.15
2022-12-17T12:48:55.702Z,12.60
2022-12-17T12:51:44.913Z,12.00
2022-12-17T12:54:44.844Z,11.38
2022-12-17T12:57:51.467Z,11.32
2022-12-17T13:00:48.167Z,12.30
2022-12-17T13:03:49.506Z,12.40
2022-12-17T13:06:40.764Z,11.50
2022-12-17T13:09:30.679Z,12.07
2022-12-17T13:12:20.583Z,11.57
2022-12-17T13:14:55.185Z,12.43
2022-12-17T13:17:32.750Z,11.00
2022-12-17T13:20:06.119Z,12.32
2022-12-17T13:22:35.042Z,12.90
2022-12-17T13:25:19.703Z,12.60
2022-12-17T13:27:48.782Z,13.77
2022-12-17T13:30:32.204Z,12.63
2022-12-17T13:33:19.521Z,12.70
2022-12-17T13:36:00.178Z,12.85
2022-12-17T13:38:37.516Z,11.35
2022-12-17T13:41:10.874Z,12.23
2022-12-17T13:43:46.430Z,11.82
2022-12-17T13:46:23.749Z,12.43
2022-12-17T13:48:58.088Z,10.55
2022-12-17T13:51:28.921Z,11.70
2022-12-17T13:54:00.388Z,11.18
2022-12-17T13:56:32.511Z,10.75
2022-12-17T13:59:08.427Z,10.18
2022-12-17T14:01:46.113Z,10.77
2022-12-17T14:04:23.052Z,10.43
2022-12-17T14:06:53.919Z,11.10
2022-12-17T14:09:24.114Z,11.35
2022-12-17T14:12:11.576Z,11.73
2022-12-17T14:14:42.507Z,12.93
2022-12-17T14:17:20.364Z,11.73
2022-12-17T14:19:53.536Z,10.48
2022-12-17T14:22:31.763Z,11.20
2022-12-17T14:25:00.389Z,12.10
2022-12-17T14:27:33.850Z,11.45
2022-12-17T14:30:04.489Z,12.10
2022-12-17T14:32:36.362Z,11.30
2022-12-17T14:35:05.719Z,10.48
2022-12-17T14:37:34.526Z,12.05
2022-12-17T14:40:05.604Z,11.75
2022-12-17T14:42:38.416Z,12.82
2022-12-17T14:45:22.825Z,13.55
2022-12-17T14:47:55.510Z,10.52
2022-12-17T14:50:31.195Z,12.18
2022-12-17T14:53:04.536Z,12.93
2022-12-17T14:55:36.341Z,13.80
2022-12-17T14:58:19.960Z,13.05
2022-12-17T15:00:51.972Z,12.38
2022-12-17T15:03:24.129Z,11.95
2022-12-17T15:05:59.621Z,13.00
2022-12-17T15:08:31.284Z,12.35
2022-12-17T15:13:29.628Z,11.68
2022-12-17T15:15:59.066Z,12.23
2022-12-17T15:18:27.576Z,11.93
2022-12-17T15:20:56.383Z,12.68
2022-12-17T15:23:25.471Z,15.07
2022-12-17T15:25:55.618Z,14.13
2022-12-17T15:28:25.253Z,13.90
2022-12-17T15:30:55.422Z,14.32
2022-12-17T15:33:23.912Z,14.88
2022-12-17T15:35:52.626Z,14.95
2022-12-17T15:38:21.198Z,15.48
2022-12-17T15:40:49.592Z,16.45
2022-12-17T15:43:16.956Z,15.45
2022-12-17T15:45:47.422Z,16.13
2022-12-17T15:48:19.066Z,13.85
2022-12-17T15:50:47.772Z,14.73
2022-12-17T15:53:16.715Z,14.55
2022-12-17T15:55:45.257Z,15.40
2022-12-17T15:58:14.078Z,15.77
2022-12-17T16:00:42.537Z,16.40
2022-12-17T16:03:10.953Z,15.93
2022-12-17T16:05:40.921Z,15.73
2022-12-17T16:08:09.507Z,17.30
2022-12-17T16:10:39.250Z,17.45
2022-12-17T16:13:07.648Z,16.65
2022-12-17T16:15:36.337Z,16.10
2022-12-17T16:18:06.696Z,19.10
2022-12-17T16:20:35.254Z,18.52
2022-12-17T16:23:05.251Z,17.02
2022-12-17T16:25:33.765Z,18.10
2022-12-17T16:28:02.243Z,16.65
2022-12-17T16:30:30.634Z,16.63
2022-12-17T16:32:59.879Z,16.83
2022-12-17T16:35:29.618Z,17.92
2022-12-17T16:37:58.042Z,19.48
2022-12-17T16:40:29.399Z,18.58
2022-12-17T16:42:57.761Z,17.83
2022-12-17T16:45:26.282Z,18.00
2022-12-17T16:47:54.788Z,19.98
2022-12-17T16:50:23.217Z,19.15
2022-12-17T16:52:52.006Z,19.88
2022-12-17T16:55:20.527Z,18.55
2022-12-17T16:57:50.113Z,18.65
2022-12-17T17:00:18.946Z,17.92
2022-12-17T17:02:53.426Z,20.25
2022-12-17T17:05:22.177Z,18.50
2022-12-17T17:07:50.574Z,19.20
2022-12-17T17:10:19.028Z,17.17
2022-12-17T17:12:47.248Z,17.27
2022-12-17T17:15:17.193Z,20.27
2022-12-17T17:17:54.029Z,19.05
2022-12-17T17:20:24.611Z,20.85
2022-12-17T17:22:52.964Z,16.85
2022-12-17T17:25:21.244Z,19.80
2022-12-17T17:27:49.715Z,19.58
2022-12-17T17:30:19.556Z,19.17
2022-12-17T17:32:47.834Z,18.63
2022-12-17T17:35:16.597Z,20.42
2022-12-17T17:37:44.946Z,19.35
2022-12-17T17:40:14.587Z,19.08
2022-12-17T17:42:46.173Z,18.80
2022-12-17T17:45:19.840Z,19.35
2022-12-17T17:47:48.291Z,18.60
2022-12-17T17:50:16.526Z,21.00
2022-12-17T17:52:44.956Z,19.45
2022-12-17T17:55:13.240Z,19.23
2022-12-17T17:57:42.194Z,18.48
2022-12-17T18:00:12.687Z,17.80
2022-12-17T18:02:42.949Z,19.45
2022-12-17T18:05:11.561Z,19.88
2022-12-17T18:07:40.060Z,19.45
2022-12-17T18:10:09.636Z,19.80
2022-12-17T18:12:55.357Z,17.88
2022-12-17T18:15:23.736Z,16.30
2022-12-17T18:17:53.693Z,15.30
2022-12-17T18:20:21.978Z,17.15
2022-12-17T18:22:50.694Z,17.55
2022-12-17T18:25:19.151Z,15.13
2022-12-17T18:27:47.829Z,15.43
2022-12-17T18:30:17.366Z,17.52
2022-12-17T18:32:46.189Z,17.45
2022-12-17T18:35:16.026Z,17.10
2022-12-17T18:37:44.589Z,16.92
2022-12-17T18:40:12.887Z,17.40
2022-12-17T18:42:58.537Z,17.30
2022-12-17T18:45:26.941Z,17.73
2022-12-17T18:47:55.233Z,15.77
2022-12-17T18:50:26.050Z,17.27
2022-12-17T18:52:54.574Z,15.38
2022-12-17T18:55:23.778Z,15.43
2022-12-17T18:57:52.024Z,15.05
2022-12-17T19:00:20.494Z,15.88
2022-12-17T19:02:48.753Z,14.18
2022-12-17T19:05:17.346Z,14.10
2022-12-17T19:07:47.574Z,14.02
2022-12-17T19:10:15.898Z,15.70
2022-12-17T19:12:44.153Z,14.98
2022-12-17T19:15:12.394Z,15.18
2022-12-17T19:17:41.537Z,14.65
2022-12-17T19:20:10.852Z,14.52
2022-12-17T19:22:39.566Z,17.13
2022-12-17T19:25:10.615Z,12.77
2022-12-17T19:27:38.828Z,14.55
2022-12-17T19:30:08.981Z,13.18
2022-12-17T19:32:37.438Z,15.30
2022-12-17T19:35:06.893Z,16.20
2022-12-17T19:37:35.223Z,14.93
2022-12-17T19:40:03.576Z,14.55
2022-12-17T19:42:37.436Z,15.55
2022-12-17T19:45:06.776Z,14.40
2022-12-17T19:47:34.985Z,14.63
2022-12-17T19:50:03.476Z,14.07
2022-12-17T19:52:31.783Z,12.45
2022-12-17T19:55:00.115Z,15.65
2022-12-17T19:57:28.503Z,16.27
2022-12-17T19:59:58.358Z,16.80
2022-12-17T20:02:32.331Z,16.20
2022-12-17T20:05:01.574Z,16.92
2022-12-17T20:07:30.134Z,15.52
2022-12-17T20:09:58.453Z,16.60
2022-12-17T20:12:26.870Z,15.70
2022-12-17T20:14:55.165Z,15.13
2022-12-17T20:17:26.141Z,18.13
2022-12-17T20:19:57.819Z,13.65
2022-12-17T20:22:26.453Z,14.88
2022-12-17T20:24:54.919Z,14.77
2022-12-17T20:27:23.602Z,13.27
2022-12-17T20:29:51.959Z,14.35
2022-12-17T20:32:21.523Z,14.82
2022-12-17T20:34:51.765Z,14.13
2022-12-17T20:37:21.247Z,13.68
2022-12-17T20:39:49.555Z,14.82
2022-12-17T20:42:18.649Z,14.27
2022-12-17T20:44:53.058Z,13.45
2022-12-17T20:47:22.025Z,15.18
2022-12-17T20:49:51.778Z,13.07
2022-12-17T20:52:20.580Z,15.75
2022-12-17T20:54:49.730Z,11.68
2022-12-17T20:57:18.280Z,13.57
2022-12-17T20:59:46.818Z,13.40
2022-12-17T21:02:15.386Z,13.27
2022-12-17T21:04:44.271Z,15.27
2022-12-17T21:07:14.427Z,15.10
2022-12-17T21:09:42.730Z,13.05
2022-12-17T21:12:13.561Z,13.85
2022-12-17T21:14:42.025Z,13.63
2022-12-17T21:17:10.412Z,12.73
2022-12-17T21:19:38.979Z,12.70
2022-12-17T21:22:07.446Z,11.93
2022-12-17T21:24:42.320Z,14.30
2022-12-17T21:27:14.930Z,13.70
2022-12-17T21:29:43.659Z,14.00
2022-12-17T21:32:12.012Z,13.07
2022-12-17T21:34:40.788Z,13.15
2022-12-17T21:37:11.386Z,12.65
2022-12-17T21:39:41.157Z,13.68
2022-12-17T21:42:26.885Z,12.07
2022-12-17T21:44:55.286Z,13.88
2022-12-17T21:47:24.039Z,15.15
2022-12-17T21:49:52.307Z,13.50
2022-12-17T21:52:20.664Z,13.15
2022-12-17T21:54:50.340Z,14.15
2022-12-17T21:57:18.982Z,14.10
2022-12-17T21:59:48.239Z,13.35
2022-12-17T22:02:17.340Z,13.25
2022-12-17T22:04:46.139Z,15.68
2022-12-17T22:07:26.663Z,11.57
2022-12-17T22:10:38.942Z,12.00
2022-12-17T22:13:10.008Z,14.07
2022-12-17T22:15:42.735Z,11.70
2022-12-17T22:18:16.832Z,13.02
2022-12-17T22:20:45.345Z,11.93
2022-12-17T22:23:15.666Z,12.07
2022-12-17T22:25:45.691Z,13.55
2022-12-17T22:28:14.904Z,11.45
2022-12-17T22:31:00.667Z,12.57
2022-12-17T22:33:34.098Z,10.80
2022-12-17T22:37:46.422Z,12.52
2022-12-17T22:43:26.865Z,10.57
2022-12-17T22:44:49.750Z,11.50
2022-12-17T22:45:09.941Z,11.85
2022-12-17T22:47:39.375Z,12.40
2022-12-17T22:50:08.450Z,11.25
2022-12-17T22:52:37.561Z,11.98
2022-12-17T22:55:07.706Z,11.38
2022-12-17T22:57:38.599Z,11.55
2022-12-17T23:00:13.901Z,10.23
2022-12-17T23:02:45.614Z,11.50
2022-12-17T23:05:14.680Z,11.40
2022-12-17T23:07:43.161Z,11.40
2022-12-17T23:10:12.032Z,11.23
2022-12-17T23:12:54.466Z,10.60
2022-12-17T23:15:27.703Z,11.00
2022-12-17T23:17:58.251Z,10.27
2022-12-17T23:20:28.021Z,10.40
2022-12-17T23:22:57.019Z,10.20
2022-12-17T23:25:25.800Z,11.38
2022-12-17T23:27:56.257Z,10.88
2022-12-17T23:30:24.787Z,10.37
2022-12-17T23:32:53.492Z,10.68
2022-12-17T23:35:22.011Z,9.73
2022-12-17T23:37:50.634Z,8.80
2022-12-17T23:40:19.166Z,10.45
2022-12-17T23:42:47.647Z,9.05
2022-12-17T23:45:17.661Z,9.70
2022-12-17T23:47:45.857Z,9.50
2022-12-17T23:50:14.460Z,11.52
2022-12-17T23:52:42.851Z,10.15
2022-12-17T23:55:11.764Z,10.02
2022-12-17T23:57:41.161Z,10.32
